createdAt,value
2018-09-26T00:00:33.704Z,80.71
2018-09-26T00:03:08.423Z,80.81
2018-09-26T00:05:38.544Z,80.59
2018-09-26T00:08:08.556Z,80.39
2018-09-26T00:10:41.344Z,80.73
2018-09-26T00:13:12.688Z,80.63
2018-09-26T00:15:42.917Z,80.98
2018-09-26T00:18:15.608Z,80.88
2018-09-26T00:20:48.991Z,80.26
2018-09-26T00:23:23.230Z,79.93
2018-09-26T00:25:55.943Z,81.55
2018-09-26T00:28:29.921Z,79.53
2018-09-26T00:31:01.974Z,79.25
2018-09-26T00:33:34.526Z,80.46
2018-09-26T00:36:07.181Z,79.61
2018-09-26T00:38:40.832Z,80.00
2018-09-26T00:41:12.775Z,79.93
2018-09-26T00:43:43.503Z,79.50
2018-09-26T00:46:13.550Z,80.07
2018-09-26T00:48:43.810Z,80.05
2018-09-26T00:51:16.015Z,80.29
2018-09-26T00:53:46.485Z,80.41
2018-09-26T00:56:16.407Z,80.52
2018-09-26T00:58:47.819Z,80.54
2018-09-26T01:01:20.311Z,80.90
2018-09-26T01:03:53.798Z,80.18
2018-09-26T01:06:25.460Z,80.07
2018-09-26T01:08:56.039Z,79.99
2018-09-26T01:11:28.472Z,80.91
2018-09-26T01:13:58.739Z,81.16
2018-09-26T01:16:29.833Z,80.89
2018-09-26T01:19:01.486Z,80.80
2018-09-26T01:21:32.943Z,80.94
2018-09-26T01:24:03.696Z,81.17
2018-09-26T01:26:33.572Z,80.69
2018-09-26T01:29:06.356Z,80.53
2018-09-26T01:31:37.025Z,80.94
2018-09-26T01:34:07.194Z,80.09
2018-09-26T01:36:37.219Z,80.06
2018-09-26T01:39:10.932Z,80.12
2018-09-26T01:41:41.992Z,80.22
2018-09-26T01:44:11.958Z,80.91
2018-09-26T01:46:42.521Z,79.93
2018-09-26T01:49:12.638Z,79.79
2018-09-26T01:51:42.607Z,79.29
2018-09-26T01:54:13.663Z,79.43
2018-09-26T01:56:44.520Z,79.76
2018-09-26T01:59:16.110Z,79.41
2018-09-26T02:01:47.044Z,79.37
2018-09-26T02:04:17.110Z,79.77
2018-09-26T02:09:27.259Z,79.72
2018-09-26T02:11:57.442Z,79.32
2018-09-26T02:14:27.500Z,79.27
2018-09-26T02:16:57.542Z,78.63
2018-09-26T02:19:29.139Z,78.88
2018-09-26T02:22:00.787Z,79.41
2018-09-26T02:24:31.860Z,78.73
2018-09-26T02:27:02.397Z,78.77
2018-09-26T02:29:34.356Z,78.94
2018-09-26T02:32:05.217Z,78.96
2018-09-26T02:34:36.680Z,78.58
2018-09-26T02:37:10.179Z,77.77
2018-09-26T02:39:41.661Z,78.06
2018-09-26T02:42:12.621Z,78.03
2018-09-26T02:44:42.467Z,78.59
2018-09-26T02:47:15.155Z,78.30
2018-09-26T02:49:45.853Z,78.56
2018-09-26T02:52:15.331Z,78.89
2018-09-26T02:54:45.581Z,79.38
2018-09-26T02:57:15.517Z,78.79
2018-09-26T02:59:45.912Z,78.40
2018-09-26T03:02:17.631Z,78.58
2018-09-26T03:04:48.131Z,78.45
2018-09-26T03:07:17.999Z,78.63
2018-09-26T03:09:49.188Z,78.35
2018-09-26T03:12:19.452Z,77.78
2018-09-26T03:14:50.601Z,78.08
2018-09-26T03:17:22.597Z,78.57
2018-09-26T03:19:54.171Z,77.54
2018-09-26T03:22:25.306Z,77.80
2018-09-26T03:24:55.343Z,76.79
2018-09-26T03:27:25.346Z,77.77
2018-09-26T03:29:55.262Z,77.58
2018-09-26T03:32:25.280Z,77.32
2018-09-26T03:34:55.702Z,77.08
2018-09-26T03:37:25.951Z,76.59
2018-09-26T03:39:55.833Z,76.54
2018-09-26T03:42:25.916Z,76.02
2018-09-26T03:44:57.205Z,76.53
2018-09-26T03:47:27.151Z,76.62
2018-09-26T03:49:57.236Z,76.57
2018-09-26T03:55:05.982Z,76.31
2018-09-26T03:57:36.408Z,76.73
2018-09-26T04:00:08.084Z,76.27
2018-09-26T04:02:38.285Z,76.41
2018-09-26T04:05:10.861Z,76.44
2018-09-26T04:07:41.597Z,76.43
2018-09-26T04:10:12.123Z,76.71
2018-09-26T04:12:43.905Z,77.11
2018-09-26T04:15:16.455Z,76.33
2018-09-26T04:17:46.471Z,76.10
2018-09-26T04:20:17.912Z,75.89
2018-09-26T04:22:49.376Z,75.92
2018-09-26T04:25:21.341Z,76.31
2018-09-26T04:27:53.633Z,76.40
2018-09-26T04:30:24.023Z,76.08
2018-09-26T04:32:56.701Z,75.41
2018-09-26T04:35:26.647Z,75.09
2018-09-26T04:37:58.855Z,75.10
2018-09-26T04:40:29.717Z,75.03
2018-09-26T04:43:00.040Z,75.21
2018-09-26T04:45:31.342Z,75.32
2018-09-26T04:48:02.157Z,75.19
2018-09-26T04:50:34.800Z,74.80
2018-09-26T04:53:06.557Z,74.92
2018-09-26T04:55:36.678Z,74.77
2018-09-26T04:58:08.937Z,74.69
2018-09-26T05:00:38.761Z,75.43
2018-09-26T05:03:08.875Z,74.55
2018-09-26T05:05:39.850Z,73.86
2018-09-26T05:08:10.379Z,74.47
2018-09-26T05:10:40.278Z,74.95
2018-09-26T05:13:10.174Z,74.10
2018-09-26T05:15:40.840Z,74.01
2018-09-26T05:18:11.981Z,74.18
2018-09-26T05:20:43.403Z,74.62
2018-09-26T05:23:14.613Z,74.37
2018-09-26T05:25:44.721Z,74.04
2018-09-26T05:28:14.983Z,74.74
2018-09-26T05:30:46.673Z,74.81
2018-09-26T05:33:17.133Z,74.07
2018-09-26T05:35:47.423Z,74.45
2018-09-26T05:38:17.463Z,73.54
2018-09-26T05:40:48.304Z,74.02
2018-09-26T05:43:18.511Z,73.46
2018-09-26T05:45:48.414Z,72.60
2018-09-26T05:48:19.059Z,73.27
2018-09-26T05:50:49.151Z,73.12
2018-09-26T05:53:19.570Z,72.01
2018-09-26T05:55:50.218Z,72.14
2018-09-26T05:58:20.413Z,72.20
2018-09-26T06:00:50.458Z,71.44
2018-09-26T06:03:20.590Z,71.61
2018-09-26T06:05:52.120Z,71.76
2018-09-26T06:08:24.834Z,71.64
2018-09-26T06:10:59.290Z,70.45
2018-09-26T06:13:30.374Z,71.38
2018-09-26T06:16:02.629Z,71.54
2018-09-26T06:18:35.128Z,70.53
2018-09-26T06:21:06.617Z,71.19
2018-09-26T06:23:38.909Z,70.92
2018-09-26T06:26:16.026Z,69.82
2018-09-26T06:28:46.156Z,69.87
2018-09-26T06:31:16.206Z,70.33
2018-09-26T06:33:46.638Z,70.22
2018-09-26T06:36:18.035Z,69.64
2018-09-26T06:38:48.347Z,69.92
2018-09-26T06:41:18.587Z,70.01
2018-09-26T06:43:49.609Z,69.74
2018-09-26T06:46:21.370Z,69.42
2018-09-26T06:48:51.656Z,69.20
2018-09-26T06:51:27.672Z,68.71
2018-09-26T06:54:00.851Z,68.59
2018-09-26T06:56:30.931Z,67.80
2018-09-26T06:59:02.619Z,68.76
2018-09-26T07:01:33.922Z,68.69
2018-09-26T07:04:05.190Z,68.23
2018-09-26T07:06:37.239Z,68.17
2018-09-26T07:09:09.929Z,68.13
2018-09-26T07:11:40.129Z,68.49
2018-09-26T07:14:11.891Z,68.38
2018-09-26T07:19:42.963Z,67.57
2018-09-26T07:24:48.720Z,67.83
2018-09-26T07:27:19.045Z,68.13
2018-09-26T07:29:49.179Z,67.95
2018-09-26T07:32:25.058Z,67.93
2018-09-26T07:34:56.559Z,68.36
2018-09-26T07:37:29.589Z,68.02
2018-09-26T07:40:01.375Z,67.45
2018-09-26T07:42:32.918Z,66.86
2018-09-26T07:47:09.255Z,67.08
2018-09-26T07:49:40.303Z,66.75
2018-09-26T07:52:12.945Z,66.25
2018-09-26T07:54:45.862Z,66.63
2018-09-26T07:57:15.976Z,66.89
2018-09-26T07:59:50.958Z,66.32
2018-09-26T08:02:24.217Z,65.21
2018-09-26T08:05:02.226Z,65.30
2018-09-26T08:10:46.267Z,64.64
2018-09-26T08:13:17.968Z,65.25
2018-09-26T08:15:51.551Z,65.35
2018-09-26T08:18:24.115Z,65.05
2018-09-26T08:20:56.683Z,65.54
2018-09-26T08:23:30.099Z,64.98
2018-09-26T08:26:00.213Z,65.39
2018-09-26T08:28:32.429Z,64.96
2018-09-26T08:31:03.588Z,65.04
2018-09-26T08:33:33.714Z,64.77
2018-09-26T08:36:05.440Z,64.32
2018-09-26T08:38:35.714Z,63.73
2018-09-26T08:41:06.566Z,64.47
2018-09-26T08:43:41.653Z,63.27
2018-09-26T08:46:13.323Z,63.09
2018-09-26T08:48:43.830Z,63.53
2018-09-26T08:51:14.352Z,63.56
2018-09-26T08:53:45.152Z,63.31
2018-09-26T08:56:15.329Z,63.28
2018-09-26T08:58:45.841Z,63.55
2018-09-26T09:01:21.334Z,63.89
2018-09-26T09:03:52.393Z,63.98
2018-09-26T09:06:22.817Z,63.49
2018-09-26T09:08:58.973Z,63.54
2018-09-26T09:11:30.897Z,63.30
2018-09-26T09:14:01.432Z,63.46
2018-09-26T09:16:33.209Z,63.66
2018-09-26T09:19:03.279Z,63.40
2018-09-26T09:21:33.653Z,63.23
2018-09-26T09:24:04.516Z,63.22
2018-09-26T09:26:35.819Z,63.33
2018-09-26T09:29:08.848Z,63.63
2018-09-26T09:31:39.547Z,64.28
2018-09-26T09:34:15.054Z,64.41
2018-09-26T09:36:47.496Z,64.51
2018-09-26T09:39:18.585Z,64.22
2018-09-26T09:41:49.188Z,64.64
2018-09-26T09:44:20.667Z,64.22
2018-09-26T09:46:53.141Z,64.65
2018-09-26T09:49:26.029Z,64.36
2018-09-26T09:51:56.662Z,64.40
2018-09-26T09:54:28.743Z,64.73
2018-09-26T09:57:00.897Z,64.06
2018-09-26T09:59:34.289Z,63.37
2018-09-26T10:02:06.677Z,63.64
2018-09-26T10:04:37.383Z,64.01
2018-09-26T10:07:10.427Z,64.78
2018-09-26T10:09:43.426Z,64.08
2018-09-26T10:12:17.200Z,64.82
2018-09-26T10:14:47.394Z,65.16
2018-09-26T10:17:17.704Z,65.29
2018-09-26T10:19:48.034Z,65.36
2018-09-26T10:22:19.244Z,65.84
2018-09-26T10:24:51.044Z,65.21
2018-09-26T10:27:23.740Z,65.75
2018-09-26T10:30:01.044Z,66.64
2018-09-26T10:32:48.378Z,65.95
2018-09-26T10:35:25.009Z,66.19
2018-09-26T10:38:08.040Z,66.41
2018-09-26T10:40:39.167Z,66.13
2018-09-26T10:43:10.619Z,66.70
2018-09-26T10:45:41.045Z,65.95
2018-09-26T10:48:11.676Z,66.18
2018-09-26T10:50:42.724Z,66.32
2018-09-26T10:53:14.576Z,66.37
2018-09-26T10:55:45.827Z,66.77
2018-09-26T10:58:16.926Z,67.39
2018-09-26T11:00:47.556Z,67.44
2018-09-26T11:03:43.229Z,67.27
2018-09-26T11:06:13.795Z,67.51
2018-09-26T11:08:45.095Z,67.37
2018-09-26T11:11:15.318Z,67.01
2018-09-26T11:13:45.739Z,66.31
2018-09-26T11:16:20.263Z,65.93
2018-09-26T11:18:55.990Z,66.37
2018-09-26T11:21:27.779Z,67.28
2018-09-26T11:23:58.210Z,67.19
2018-09-26T11:26:28.368Z,66.19
2018-09-26T11:28:58.803Z,66.39
2018-09-26T11:31:31.580Z,66.59
2018-09-26T11:34:02.368Z,66.28
2018-09-26T11:36:33.929Z,66.31
2018-09-26T11:39:11.576Z,66.66
2018-09-26T11:41:49.169Z,66.28
2018-09-26T11:44:24.945Z,66.09
2018-09-26T11:46:55.035Z,65.20
2018-09-26T11:49:25.925Z,65.42
2018-09-26T11:51:56.753Z,65.10
2018-09-26T11:57:09.327Z,65.32
2018-09-26T11:59:49.886Z,66.17
2018-09-26T12:02:25.442Z,64.74
2018-09-26T12:05:00.991Z,65.26
2018-09-26T12:07:31.995Z,65.11
2018-09-26T12:10:04.151Z,64.38
2018-09-26T12:12:35.886Z,64.98
2018-09-26T12:15:06.796Z,65.46
2018-09-26T12:17:41.057Z,64.97
2018-09-26T12:20:20.759Z,65.53
2018-09-26T12:22:52.405Z,65.10
2018-09-26T12:25:23.278Z,64.97
2018-09-26T12:27:53.549Z,63.99
2018-09-26T12:30:24.487Z,64.91
2018-09-26T12:32:55.048Z,64.43
2018-09-26T12:35:27.732Z,63.72
2018-09-26T12:37:58.778Z,63.93
2018-09-26T12:40:30.028Z,64.09
2018-09-26T12:43:01.308Z,63.72
2018-09-26T12:45:32.637Z,64.14
2018-09-26T12:48:04.300Z,64.17
2018-09-26T12:50:35.864Z,64.45
2018-09-26T12:55:48.902Z,63.94
2018-09-26T12:58:20.005Z,63.49
2018-09-26T13:00:52.629Z,63.71
2018-09-26T13:03:24.579Z,63.37
2018-09-26T13:05:55.401Z,64.41
2018-09-26T13:08:26.534Z,64.15
2018-09-26T13:10:57.108Z,64.04
2018-09-26T13:13:26.814Z,64.17
2018-09-26T13:15:57.586Z,64.29
2018-09-26T13:18:27.500Z,64.30
2018-09-26T13:20:58.031Z,64.15
2018-09-26T13:23:28.213Z,64.50
2018-09-26T13:25:59.497Z,64.47
2018-09-26T13:28:30.292Z,63.85
2018-09-26T13:31:01.256Z,64.72
2018-09-26T13:33:33.194Z,64.92
2018-09-26T13:36:08.464Z,65.42
2018-09-26T13:38:40.365Z,64.18
2018-09-26T13:41:10.725Z,65.22
2018-09-26T13:43:51.910Z,65.89
2018-09-26T13:48:57.047Z,67.07
2018-09-26T13:51:27.984Z,68.31
2018-09-26T13:54:00.975Z,69.83
2018-09-26T13:56:33.252Z,70.82
2018-09-26T13:59:09.007Z,72.83
2018-09-26T14:01:46.443Z,74.44
2018-09-26T14:09:46.228Z,75.35
2018-09-26T14:12:18.693Z,76.07
2018-09-26T14:14:49.129Z,75.94
2018-09-26T14:17:30.340Z,76.18
2018-09-26T14:20:01.573Z,76.89
2018-09-26T14:22:33.773Z,75.66
2018-09-26T14:25:05.324Z,75.57
2018-09-26T14:27:36.283Z,74.80
2018-09-26T14:30:07.052Z,74.28
2018-09-26T14:32:37.916Z,75.37
2018-09-26T14:35:07.872Z,74.68
2018-09-26T14:37:39.161Z,75.21
2018-09-26T14:40:11.989Z,74.97
2018-09-26T14:42:44.614Z,77.66
2018-09-26T14:45:14.956Z,77.07
2018-09-26T14:47:45.213Z,77.62
2018-09-26T14:50:17.133Z,78.27
2018-09-26T14:52:47.543Z,78.65
2018-09-26T14:55:17.967Z,78.87
2018-09-26T14:57:48.764Z,79.15
2018-09-26T15:00:19.697Z,79.99
2018-09-26T15:02:52.229Z,79.40
2018-09-26T15:05:24.194Z,80.49
2018-09-26T15:07:54.339Z,80.86
2018-09-26T15:10:26.947Z,80.98
2018-09-26T15:12:57.121Z,81.31
2018-09-26T15:15:27.694Z,80.46
2018-09-26T15:17:58.541Z,81.11
2018-09-26T15:20:29.117Z,81.26
2018-09-26T15:23:01.430Z,81.36
2018-09-26T15:25:31.513Z,81.27
2018-09-26T15:28:02.670Z,81.25
2018-09-26T15:30:33.741Z,81.61
2018-09-26T15:33:04.623Z,82.78
2018-09-26T15:35:35.004Z,82.80
2018-09-26T15:38:05.837Z,83.22
2018-09-26T15:40:36.729Z,83.79
2018-09-26T15:43:07.832Z,84.14
2018-09-26T15:45:37.824Z,84.88
2018-09-26T15:48:08.859Z,85.70
2018-09-26T15:50:41.723Z,85.75
2018-09-26T15:53:12.545Z,85.26
2018-09-26T15:55:44.195Z,85.12
2018-09-26T15:58:17.854Z,83.97
2018-09-26T16:00:50.122Z,83.44
2018-09-26T16:03:21.125Z,83.74
2018-09-26T16:05:56.817Z,83.47
2018-09-26T16:08:36.421Z,82.22
2018-09-26T16:11:07.261Z,81.92
2018-09-26T16:13:40.637Z,81.77
2018-09-26T16:16:13.103Z,81.25
2018-09-26T16:18:45.089Z,81.51
2018-09-26T16:21:18.454Z,82.16
2018-09-26T16:23:49.835Z,83.36
2018-09-26T16:26:21.099Z,84.42
2018-09-26T16:28:53.228Z,85.34
2018-09-26T16:31:23.703Z,84.39
2018-09-26T16:33:55.531Z,86.32
2018-09-26T16:36:28.950Z,87.89
2018-09-26T16:39:00.283Z,88.03
2018-09-26T16:41:31.190Z,88.69
2018-09-26T16:44:05.704Z,90.37
2018-09-26T16:46:38.356Z,90.60
2018-09-26T16:49:10.487Z,91.84
2018-09-26T16:51:42.805Z,92.71
2018-09-26T16:54:12.967Z,92.07
2018-09-26T16:56:44.208Z,92.71
2018-09-26T16:59:14.857Z,92.49
2018-09-26T17:01:45.726Z,91.46
2018-09-26T17:04:17.046Z,92.52
2018-09-26T17:06:48.069Z,91.49
2018-09-26T17:09:18.668Z,91.54
2018-09-26T17:11:51.550Z,92.21
2018-09-26T17:14:21.626Z,91.54
2018-09-26T17:16:51.155Z,92.54
2018-09-26T17:19:22.246Z,91.83
2018-09-26T17:21:53.730Z,92.15
2018-09-26T17:24:25.217Z,91.30
2018-09-26T17:26:55.863Z,91.45
2018-09-26T17:29:26.749Z,91.34
2018-09-26T17:31:57.574Z,90.87
2018-09-26T17:34:29.451Z,90.42
2018-09-26T17:36:59.925Z,90.93
2018-09-26T17:39:30.843Z,90.57
2018-09-26T17:42:05.743Z,90.60
2018-09-26T17:44:37.308Z,90.47
2018-09-26T17:47:08.683Z,90.26
2018-09-26T17:49:38.709Z,90.40
2018-09-26T17:52:09.590Z,90.20
2018-09-26T17:54:39.497Z,90.51
2018-09-26T17:57:11.040Z,91.59
2018-09-26T17:59:41.843Z,91.41
2018-09-26T18:02:13.131Z,91.86
2018-09-26T18:04:43.136Z,91.51
2018-09-26T18:07:14.853Z,91.81
2018-09-26T18:09:45.887Z,91.46
2018-09-26T18:12:16.882Z,91.75
2018-09-26T18:14:47.517Z,92.16
2018-09-26T18:17:18.247Z,91.94
2018-09-26T18:19:48.824Z,93.28
2018-09-26T18:22:19.789Z,93.24
2018-09-26T18:24:49.820Z,94.10
2018-09-26T18:27:20.273Z,93.61
2018-09-26T18:29:51.683Z,94.54
2018-09-26T18:32:23.507Z,94.92
2018-09-26T18:34:54.936Z,94.91
2018-09-26T18:37:26.176Z,95.50
2018-09-26T18:39:57.003Z,95.45
2018-09-26T18:42:31.993Z,94.98
2018-09-26T18:45:02.238Z,95.22
2018-09-26T18:47:36.634Z,96.47
2018-09-26T18:50:09.061Z,96.62
2018-09-26T18:52:39.084Z,96.63
2018-09-26T18:55:10.187Z,97.08
2018-09-26T18:57:41.690Z,96.65
2018-09-26T19:00:17.163Z,97.14
2018-09-26T19:02:47.610Z,97.72
2018-09-26T19:05:18.893Z,97.47
2018-09-26T19:07:49.435Z,97.23
2018-09-26T19:10:19.889Z,97.68
2018-09-26T19:12:50.360Z,97.76
2018-09-26T19:15:21.123Z,98.14
2018-09-26T19:17:52.451Z,98.24
2018-09-26T19:20:24.409Z,97.85
2018-09-26T19:22:55.561Z,98.32
2018-09-26T19:25:25.554Z,98.05
2018-09-26T19:27:56.012Z,98.08
2018-09-26T19:30:26.069Z,98.78
2018-09-26T19:32:56.255Z,98.12
2018-09-26T19:35:29.957Z,98.25
2018-09-26T19:38:01.178Z,97.92
2018-09-26T19:40:32.718Z,98.01
2018-09-26T19:43:03.427Z,98.46
2018-09-26T19:45:35.725Z,99.00
2018-09-26T19:48:07.816Z,98.48
2018-09-26T19:50:38.653Z,98.29
2018-09-26T19:53:09.154Z,98.39
2018-09-26T19:55:42.043Z,98.78
2018-09-26T19:58:13.547Z,99.12
2018-09-26T20:00:44.760Z,99.58
2018-09-26T20:03:15.520Z,98.61
2018-09-26T20:06:00.375Z,98.70
2018-09-26T20:11:21.046Z,99.29
2018-09-26T20:14:00.448Z,99.25
2018-09-26T20:16:31.291Z,99.38
2018-09-26T20:19:06.511Z,98.65
2018-09-26T20:21:51.712Z,99.15
2018-09-26T20:24:29.177Z,99.05
2018-09-26T20:27:04.383Z,99.15
2018-09-26T20:35:55.214Z,99.79
2018-09-26T20:38:28.940Z,100.00
2018-09-26T20:41:11.561Z,99.64
2018-09-26T20:43:50.153Z,99.24
2018-09-26T20:46:26.731Z,99.79
2018-09-26T20:48:57.904Z,99.40
2018-09-26T20:51:28.842Z,99.54
2018-09-26T20:53:59.006Z,100.00
2018-09-26T20:56:29.173Z,100.00
2018-09-26T20:58:59.906Z,99.71
2018-09-26T21:01:29.887Z,100.00
2018-09-26T21:03:59.941Z,99.75
2018-09-26T21:06:31.304Z,100.00
2018-09-26T21:09:02.083Z,99.80
2018-09-26T21:11:32.034Z,100.00
2018-09-26T21:14:05.287Z,100.00
2018-09-26T21:16:35.632Z,100.00
2018-09-26T21:19:06.963Z,100.00
2018-09-26T21:21:38.420Z,100.00
2018-09-26T21:24:08.636Z,100.00
2018-09-26T21:26:38.999Z,100.00
2018-09-26T21:29:11.649Z,100.00
2018-09-26T21:31:41.684Z,100.00
2018-09-26T21:34:14.263Z,100.00
2018-09-26T21:36:44.319Z,100.00
2018-09-26T21:39:16.907Z,100.00
2018-09-26T21:41:47.071Z,100.00
2018-09-26T21:44:16.959Z,100.00
2018-09-26T21:46:49.148Z,100.00
2018-09-26T21:49:19.147Z,100.00
2018-09-26T21:51:50.096Z,100.00
2018-09-26T21:54:20.383Z,100.00
2018-09-26T21:56:53.575Z,100.00
2018-09-26T21:59:23.630Z,100.00
2018-09-26T22:01:53.846Z,100.00
2018-09-26T22:04:30.565Z,100.00
2018-09-26T22:07:00.731Z,100.00
2018-09-26T22:09:31.019Z,100.00
2018-09-26T22:12:00.871Z,100.00
2018-09-26T22:14:31.821Z,100.00
2018-09-26T22:17:03.228Z,100.00
2018-09-26T22:19:35.029Z,100.00
2018-09-26T22:22:08.330Z,100.00
2018-09-26T22:24:38.380Z,100.00
2018-09-26T22:27:11.895Z,100.00
2018-09-26T22:29:43.090Z,100.00
2018-09-26T22:32:13.649Z,100.00
2018-09-26T22:34:45.216Z,100.00
2018-09-26T22:37:17.804Z,100.00
2018-09-26T22:39:48.177Z,100.00
2018-09-26T22:42:18.327Z,100.00
2018-09-26T22:44:49.699Z,100.00
2018-09-26T22:49:37.009Z,100.00
2018-09-26T22:52:07.708Z,100.00
2018-09-26T22:54:39.820Z,100.00
2018-09-26T22:57:10.041Z,100.00
2018-09-26T22:59:41.246Z,100.00
2018-09-26T23:02:13.182Z,100.00
2018-09-26T23:04:43.082Z,100.00
2018-09-26T23:07:15.039Z,100.00
2018-09-26T23:09:45.077Z,100.00
2018-09-26T23:12:15.646Z,100.00
2018-09-26T23:14:47.225Z,100.00
2018-09-26T23:17:18.800Z,100.00
2018-09-26T23:19:51.256Z,100.00
2018-09-26T23:22:23.928Z,100.00
2018-09-26T23:24:55.548Z,100.00
2018-09-26T23:27:25.160Z,100.00
2018-09-26T23:29:56.917Z,100.00
2018-09-26T23:32:27.264Z,100.00
2018-09-26T23:34:57.094Z,100.00
2018-09-26T23:37:29.263Z,100.00
2018-09-26T23:39:59.074Z,100.00
2018-09-26T23:42:28.868Z,100.00
2018-09-26T23:44:59.685Z,100.00
2018-09-26T23:47:29.737Z,100.00
2018-09-26T23:50:00.540Z,100.00
2018-09-26T23:52:30.061Z,100.00
2018-09-26T23:54:59.955Z,100.00
